sensor_id;sensor_type;location;lat;lon;timestamp;P1;durP1;ratioP1;P2;durP2;ratioP2
1949;SDS011;975;48.760;9.152;2022-08-30T00:01:09;7.70;;;4.55;;
1949;SDS011;975;48.760;9.152;2022-08-30T00:03:38;10.95;;;4.90;;
1949;SDS011;975;48.760;9.152;2022-08-30T00:08:35;8.32;;;4.53;;
1949;SDS011;975;48.760;9.152;2022-08-30T00:11:06;6.35;;;4.00;;
1949;SDS011;975;48.760;9.152;2022-08-30T00:13:34;9.95;;;4.63;;
1949;SDS011;975;48.760;9.152;2022-08-30T00:16:02;11.02;;;4.72;;
1949;SDS011;975;48.760;9.152;2022-08-30T00:18:31;9.80;;;4.25;;
1949;SDS011;975;48.760;9.152;2022-08-30T00:20:59;8.80;;;4.70;;
1949;SDS011;975;48.760;9.152;2022-08-30T00:23:27;7.13;;;4.45;;
1949;SDS011;975;48.760;9.152;2022-08-30T00:25:57;6.57;;;4.53;;
1949;SDS011;975;48.760;9.152;2022-08-30T00:28:25;6.53;;;4.10;;
1949;SDS011;975;48.760;9.152;2022-08-30T00:30:52;6.95;;;3.83;;
1949;SDS011;975;48.760;9.152;2022-08-30T00:33:20;8.18;;;4.00;;
1949;SDS011;975;48.760;9.152;2022-08-30T00:35:48;8.35;;;4.32;;
1949;SDS011;975;48.760;9.152;2022-08-30T00:38:15;8.45;;;4.13;;
1949;SDS011;975;48.760;9.152;2022-08-30T00:40:44;8.15;;;4.30;;
1949;SDS011;975;48.760;9.152;2022-08-30T00:43:15;18.23;;;5.22;;
1949;SDS011;975;48.760;9.152;2022-08-30T00:45:43;6.30;;;3.92;;
1949;SDS011;975;48.760;9.152;2022-08-30T00:48:10;7.43;;;4.38;;
1949;SDS011;975;48.760;9.152;2022-08-30T00:50:39;8.35;;;4.40;;
1949;SDS011;975;48.760;9.152;2022-08-30T00:53:08;8.25;;;4.25;;
1949;SDS011;975;48.760;9.152;2022-08-30T00:55:37;7.40;;;3.92;;
1949;SDS011;975;48.760;9.152;2022-08-30T00:58:06;9.70;;;4.38;;
1949;SDS011;975;48.760;9.152;2022-08-30T01:00:35;8.43;;;4.20;;
1949;SDS011;975;48.760;9.152;2022-08-30T01:03:03;7.43;;;4.05;;
1949;SDS011;975;48.760;9.152;2022-08-30T01:05:33;9.77;;;4.10;;
1949;SDS011;975;48.760;9.152;2022-08-30T01:08:03;7.03;;;4.15;;
1949;SDS011;975;48.760;9.152;2022-08-30T01:10:31;7.70;;;4.10;;
1949;SDS011;975;48.760;9.152;2022-08-30T01:12:59;7.05;;;4.18;;
1949;SDS011;975;48.760;9.152;2022-08-30T01:15:27;7.78;;;3.83;;
1949;SDS011;975;48.760;9.152;2022-08-30T01:17:58;7.82;;;4.25;;
1949;SDS011;975;48.760;9.152;2022-08-30T01:20:28;7.88;;;4.40;;
1949;SDS011;975;48.760;9.152;2022-08-30T01:23:04;8.90;;;3.97;;
1949;SDS011;975;48.760;9.152;2022-08-30T01:25:32;8.77;;;4.05;;
1949;SDS011;975;48.760;9.152;2022-08-30T01:28:02;7.45;;;4.13;;
1949;SDS011;975;48.760;9.152;2022-08-30T01:30:31;8.48;;;4.10;;
1949;SDS011;975;48.760;9.152;2022-08-30T01:32:59;9.82;;;4.68;;
1949;SDS011;975;48.760;9.152;2022-08-30T01:35:27;11.50;;;4.53;;
1949;SDS011;975;48.760;9.152;2022-08-30T01:37:55;7.32;;;4.38;;
1949;SDS011;975;48.760;9.152;2022-08-30T01:40:24;7.63;;;4.00;;
1949;SDS011;975;48.760;9.152;2022-08-30T01:42:52;6.68;;;4.03;;
1949;SDS011;975;48.760;9.152;2022-08-30T01:45:19;7.50;;;4.35;;
1949;SDS011;975;48.760;9.152;2022-08-30T01:47:47;7.13;;;4.85;;
1949;SDS011;975;48.760;9.152;2022-08-30T01:50:15;7.68;;;4.47;;
1949;SDS011;975;48.760;9.152;2022-08-30T01:52:42;7.45;;;4.20;;
1949;SDS011;975;48.760;9.152;2022-08-30T01:55:10;8.93;;;4.35;;
1949;SDS011;975;48.760;9.152;2022-08-30T01:57:39;7.13;;;4.18;;
1949;SDS011;975;48.760;9.152;2022-08-30T02:00:07;8.52;;;4.20;;
1949;SDS011;975;48.760;9.152;2022-08-30T02:02:35;7.15;;;4.50;;
1949;SDS011;975;48.760;9.152;2022-08-30T02:05:03;7.22;;;4.57;;
1949;SDS011;975;48.760;9.152;2022-08-30T02:07:30;7.78;;;4.38;;
1949;SDS011;975;48.760;9.152;2022-08-30T02:09:58;7.72;;;4.35;;
1949;SDS011;975;48.760;9.152;2022-08-30T02:12:25;11.70;;;4.60;;
1949;SDS011;975;48.760;9.152;2022-08-30T02:14:56;11.48;;;4.40;;
1949;SDS011;975;48.760;9.152;2022-08-30T02:17:23;6.80;;;4.28;;
1949;SDS011;975;48.760;9.152;2022-08-30T02:19:51;8.00;;;4.35;;
1949;SDS011;975;48.760;9.152;2022-08-30T02:22:18;8.63;;;4.43;;
1949;SDS011;975;48.760;9.152;2022-08-30T02:24:46;8.98;;;4.47;;
1949;SDS011;975;48.760;9.152;2022-08-30T02:27:13;9.35;;;4.38;;
1949;SDS011;975;48.760;9.152;2022-08-30T02:29:41;7.78;;;4.65;;
1949;SDS011;975;48.760;9.152;2022-08-30T02:32:10;6.80;;;4.32;;
1949;SDS011;975;48.760;9.152;2022-08-30T02:34:37;9.20;;;4.32;;
1949;SDS011;975;48.760;9.152;2022-08-30T02:37:05;9.10;;;4.75;;
1949;SDS011;975;48.760;9.152;2022-08-30T02:39:33;11.02;;;4.82;;
1949;SDS011;975;48.760;9.152;2022-08-30T02:42:01;8.30;;;4.60;;
1949;SDS011;975;48.760;9.152;2022-08-30T02:44:28;6.25;;;4.13;;
1949;SDS011;975;48.760;9.152;2022-08-30T02:46:56;6.45;;;4.13;;
1949;SDS011;975;48.760;9.152;2022-08-30T02:49:25;10.48;;;4.25;;
1949;SDS011;975;48.760;9.152;2022-08-30T02:51:52;8.05;;;5.28;;
1949;SDS011;975;48.760;9.152;2022-08-30T02:54:20;10.05;;;4.88;;
1949;SDS011;975;48.760;9.152;2022-08-30T02:56:48;7.13;;;5.10;;
1949;SDS011;975;48.760;9.152;2022-08-30T02:59:16;7.13;;;4.47;;
1949;SDS011;975;48.760;9.152;2022-08-30T03:01:44;9.27;;;4.95;;
1949;SDS011;975;48.760;9.152;2022-08-30T03:04:11;8.75;;;4.63;;
1949;SDS011;975;48.760;9.152;2022-08-30T03:06:40;6.32;;;3.92;;
1949;SDS011;975;48.760;9.152;2022-08-30T03:09:08;9.45;;;5.57;;
1949;SDS011;975;48.760;9.152;2022-08-30T03:11:35;6.85;;;4.53;;
1949;SDS011;975;48.760;9.152;2022-08-30T03:14:03;8.93;;;4.68;;
1949;SDS011;975;48.760;9.152;2022-08-30T03:16:30;7.28;;;4.07;;
1949;SDS011;975;48.760;9.152;2022-08-30T03:18:58;10.50;;;5.05;;
1949;SDS011;975;48.760;9.152;2022-08-30T03:21:25;8.63;;;4.40;;
1949;SDS011;975;48.760;9.152;2022-08-30T03:23:54;8.00;;;4.68;;
1949;SDS011;975;48.760;9.152;2022-08-30T03:26:21;9.30;;;4.38;;
1949;SDS011;975;48.760;9.152;2022-08-30T03:28:49;7.07;;;4.60;;
1949;SDS011;975;48.760;9.152;2022-08-30T03:31:17;8.60;;;4.88;;
1949;SDS011;975;48.760;9.152;2022-08-30T03:33:45;12.20;;;4.40;;
1949;SDS011;975;48.760;9.152;2022-08-30T03:36:12;10.38;;;5.03;;
1949;SDS011;975;48.760;9.152;2022-08-30T03:38:40;7.30;;;4.00;;
1949;SDS011;975;48.760;9.152;2022-08-30T03:41:09;10.88;;;5.20;;
1949;SDS011;975;48.760;9.152;2022-08-30T03:43:36;8.15;;;4.47;;
1949;SDS011;975;48.760;9.152;2022-08-30T03:46:04;8.13;;;4.82;;
1949;SDS011;975;48.760;9.152;2022-08-30T03:48:32;8.27;;;4.22;;
1949;SDS011;975;48.760;9.152;2022-08-30T03:50:59;7.38;;;4.28;;
1949;SDS011;975;48.760;9.152;2022-08-30T03:53:27;8.00;;;5.00;;
1949;SDS011;975;48.760;9.152;2022-08-30T03:55:54;7.93;;;4.82;;
1949;SDS011;975;48.760;9.152;2022-08-30T03:58:23;8.20;;;5.10;;
1949;SDS011;975;48.760;9.152;2022-08-30T04:00:51;10.65;;;5.07;;
1949;SDS011;975;48.760;9.152;2022-08-30T04:03:18;7.90;;;4.90;;
1949;SDS011;975;48.760;9.152;2022-08-30T04:05:50;8.98;;;5.35;;
1949;SDS011;975;48.760;9.152;2022-08-30T04:08:18;7.75;;;4.63;;
1949;SDS011;975;48.760;9.152;2022-08-30T04:10:45;7.38;;;4.47;;
1949;SDS011;975;48.760;9.152;2022-08-30T04:13:13;10.00;;;4.60;;
1949;SDS011;975;48.760;9.152;2022-08-30T04:15:42;8.40;;;4.63;;
1949;SDS011;975;48.760;9.152;2022-08-30T04:18:10;11.00;;;5.30;;
1949;SDS011;975;48.760;9.152;2022-08-30T04:20:37;6.13;;;4.10;;
1949;SDS011;975;48.760;9.152;2022-08-30T04:23:05;13.65;;;4.10;;
1949;SDS011;975;48.760;9.152;2022-08-30T04:25:33;8.50;;;4.47;;
1949;SDS011;975;48.760;9.152;2022-08-30T04:28:01;6.53;;;4.40;;
1949;SDS011;975;48.760;9.152;2022-08-30T04:30:29;5.97;;;4.35;;
1949;SDS011;975;48.760;9.152;2022-08-30T04:32:58;9.70;;;4.47;;
1949;SDS011;975;48.760;9.152;2022-08-30T04:35:25;10.82;;;4.85;;
1949;SDS011;975;48.760;9.152;2022-08-30T04:37:53;8.43;;;4.95;;
1949;SDS011;975;48.760;9.152;2022-08-30T04:40:20;8.18;;;4.78;;
1949;SDS011;975;48.760;9.152;2022-08-30T04:42:48;7.40;;;4.80;;
1949;SDS011;975;48.760;9.152;2022-08-30T04:45:19;10.60;;;5.10;;
1949;SDS011;975;48.760;9.152;2022-08-30T04:47:46;8.85;;;4.78;;
1949;SDS011;975;48.760;9.152;2022-08-30T04:50:16;8.20;;;4.88;;
1949;SDS011;975;48.760;9.152;2022-08-30T04:52:44;9.27;;;5.03;;
1949;SDS011;975;48.760;9.152;2022-08-30T04:55:12;9.13;;;4.72;;
1949;SDS011;975;48.760;9.152;2022-08-30T04:57:39;11.13;;;4.68;;
1949;SDS011;975;48.760;9.152;2022-08-30T05:00:08;10.20;;;5.15;;
1949;SDS011;975;48.760;9.152;2022-08-30T05:02:36;10.25;;;5.55;;
1949;SDS011;975;48.760;9.152;2022-08-30T05:05:04;8.75;;;5.13;;
1949;SDS011;975;48.760;9.152;2022-08-30T05:07:50;8.15;;;5.05;;
1949;SDS011;975;48.760;9.152;2022-08-30T05:10:18;8.32;;;5.10;;
1949;SDS011;975;48.760;9.152;2022-08-30T05:12:46;9.32;;;4.63;;
1949;SDS011;975;48.760;9.152;2022-08-30T05:15:13;9.35;;;4.55;;
1949;SDS011;975;48.760;9.152;2022-08-30T05:17:41;8.32;;;4.70;;
1949;SDS011;975;48.760;9.152;2022-08-30T05:20:09;9.10;;;5.13;;
1949;SDS011;975;48.760;9.152;2022-08-30T05:22:37;7.45;;;4.80;;
1949;SDS011;975;48.760;9.152;2022-08-30T05:25:06;8.95;;;4.88;;
1949;SDS011;975;48.760;9.152;2022-08-30T05:27:34;7.28;;;4.78;;
1949;SDS011;975;48.760;9.152;2022-08-30T05:30:01;7.00;;;4.60;;
1949;SDS011;975;48.760;9.152;2022-08-30T05:32:30;9.95;;;5.53;;
1949;SDS011;975;48.760;9.152;2022-08-30T05:34:58;9.35;;;4.70;;
1949;SDS011;975;48.760;9.152;2022-08-30T05:37:25;8.35;;;4.68;;
1949;SDS011;975;48.760;9.152;2022-08-30T05:39:52;8.25;;;4.95;;
1949;SDS011;975;48.760;9.152;2022-08-30T05:42:22;10.35;;;4.97;;
1949;SDS011;975;48.760;9.152;2022-08-30T05:44:50;9.93;;;4.22;;
1949;SDS011;975;48.760;9.152;2022-08-30T05:47:17;9.27;;;4.18;;
1949;SDS011;975;48.760;9.152;2022-08-30T05:49:45;6.70;;;4.50;;
1949;SDS011;975;48.760;9.152;2022-08-30T05:52:13;8.48;;;4.63;;
1949;SDS011;975;48.760;9.152;2022-08-30T05:54:42;6.82;;;4.22;;
1949;SDS011;975;48.760;9.152;2022-08-30T05:57:10;7.78;;;4.43;;
1949;SDS011;975;48.760;9.152;2022-08-30T05:59:39;6.80;;;4.57;;
1949;SDS011;975;48.760;9.152;2022-08-30T06:02:07;10.27;;;5.43;;
1949;SDS011;975;48.760;9.152;2022-08-30T06:04:34;8.70;;;4.32;;
1949;SDS011;975;48.760;9.152;2022-08-30T06:07:02;7.85;;;4.10;;
1949;SDS011;975;48.760;9.152;2022-08-30T06:09:30;6.47;;;4.00;;
1949;SDS011;975;48.760;9.152;2022-08-30T06:11:57;8.40;;;4.55;;
1949;SDS011;975;48.760;9.152;2022-08-30T06:14:25;7.82;;;4.57;;
1949;SDS011;975;48.760;9.152;2022-08-30T06:16:54;6.18;;;3.83;;
1949;SDS011;975;48.760;9.152;2022-08-30T06:21:50;7.88;;;4.63;;
1949;SDS011;975;48.760;9.152;2022-08-30T06:24:18;8.77;;;4.35;;
1949;SDS011;975;48.760;9.152;2022-08-30T06:26:46;9.13;;;5.00;;
1949;SDS011;975;48.760;9.152;2022-08-30T06:29:14;6.93;;;4.35;;
1949;SDS011;975;48.760;9.152;2022-08-30T06:31:42;7.95;;;3.97;;
1949;SDS011;975;48.760;9.152;2022-08-30T06:34:11;7.47;;;4.85;;
1949;SDS011;975;48.760;9.152;2022-08-30T06:36:38;9.07;;;5.45;;
1949;SDS011;975;48.760;9.152;2022-08-30T06:39:06;10.10;;;5.03;;
1949;SDS011;975;48.760;9.152;2022-08-30T06:41:35;8.88;;;5.05;;
1949;SDS011;975;48.760;9.152;2022-08-30T06:44:03;9.80;;;5.35;;
1949;SDS011;975;48.760;9.152;2022-08-30T06:46:31;9.18;;;5.20;;
1949;SDS011;975;48.760;9.152;2022-08-30T06:48:59;10.85;;;5.57;;
1949;SDS011;975;48.760;9.152;2022-08-30T06:51:29;11.60;;;5.80;;
1949;SDS011;975;48.760;9.152;2022-08-30T06:56:24;10.30;;;6.10;;
1949;SDS011;975;48.760;9.152;2022-08-30T06:58:52;9.88;;;6.05;;
1949;SDS011;975;48.760;9.152;2022-08-30T07:01:20;10.80;;;5.68;;
1949;SDS011;975;48.760;9.152;2022-08-30T07:03:49;10.75;;;6.15;;
1949;SDS011;975;48.760;9.152;2022-08-30T07:06:17;10.27;;;5.90;;
1949;SDS011;975;48.760;9.152;2022-08-30T07:08:47;9.35;;;5.75;;
1949;SDS011;975;48.760;9.152;2022-08-30T07:11:23;11.85;;;6.35;;
1949;SDS011;975;48.760;9.152;2022-08-30T07:13:51;14.57;;;5.70;;
1949;SDS011;975;48.760;9.152;2022-08-30T07:16:18;12.38;;;5.57;;
1949;SDS011;975;48.760;9.152;2022-08-30T07:18:46;10.95;;;5.70;;
1949;SDS011;975;48.760;9.152;2022-08-30T07:21:16;9.88;;;5.88;;
1949;SDS011;975;48.760;9.152;2022-08-30T07:23:44;8.95;;;5.10;;
1949;SDS011;975;48.760;9.152;2022-08-30T07:26:15;10.10;;;5.28;;
1949;SDS011;975;48.760;9.152;2022-08-30T07:28:43;13.40;;;5.68;;
1949;SDS011;975;48.760;9.152;2022-08-30T07:31:11;12.55;;;5.53;;
1949;SDS011;975;48.760;9.152;2022-08-30T07:33:40;11.35;;;5.72;;
1949;SDS011;975;48.760;9.152;2022-08-30T07:36:07;11.55;;;5.97;;
1949;SDS011;975;48.760;9.152;2022-08-30T07:38:35;9.88;;;6.03;;
1949;SDS011;975;48.760;9.152;2022-08-30T07:41:03;13.27;;;5.97;;
1949;SDS011;975;48.760;9.152;2022-08-30T07:43:32;9.07;;;5.63;;
1949;SDS011;975;48.760;9.152;2022-08-30T07:46:01;9.88;;;6.32;;
1949;SDS011;975;48.760;9.152;2022-08-30T07:48:29;8.30;;;5.97;;
1949;SDS011;975;48.760;9.152;2022-08-30T07:50:57;13.43;;;6.20;;
1949;SDS011;975;48.760;9.152;2022-08-30T07:53:24;9.70;;;6.32;;
1949;SDS011;975;48.760;9.152;2022-08-30T07:55:52;11.43;;;6.15;;
1949;SDS011;975;48.760;9.152;2022-08-30T07:58:20;9.07;;;5.97;;
1949;SDS011;975;48.760;9.152;2022-08-30T08:00:49;16.38;;;6.55;;
1949;SDS011;975;48.760;9.152;2022-08-30T08:03:16;8.63;;;5.45;;
1949;SDS011;975;48.760;9.152;2022-08-30T08:05:44;9.48;;;5.30;;
1949;SDS011;975;48.760;9.152;2022-08-30T08:08:11;8.75;;;5.57;;
1949;SDS011;975;48.760;9.152;2022-08-30T08:10:40;10.18;;;6.05;;
1949;SDS011;975;48.760;9.152;2022-08-30T08:13:07;10.57;;;5.90;;
1949;SDS011;975;48.760;9.152;2022-08-30T08:15:35;12.20;;;6.10;;
1949;SDS011;975;48.760;9.152;2022-08-30T08:18:04;10.02;;;6.20;;
1949;SDS011;975;48.760;9.152;2022-08-30T08:20:34;10.18;;;5.70;;
1949;SDS011;975;48.760;9.152;2022-08-30T08:23:02;8.25;;;6.18;;
1949;SDS011;975;48.760;9.152;2022-08-30T08:25:29;7.60;;;5.22;;
1949;SDS011;975;48.760;9.152;2022-08-30T08:27:57;9.20;;;5.70;;
1949;SDS011;975;48.760;9.152;2022-08-30T08:30:24;8.98;;;5.80;;
1949;SDS011;975;48.760;9.152;2022-08-30T08:32:52;10.77;;;6.75;;
1949;SDS011;975;48.760;9.152;2022-08-30T08:35:21;10.45;;;6.10;;
1949;SDS011;975;48.760;9.152;2022-08-30T08:37:48;11.02;;;5.22;;
1949;SDS011;975;48.760;9.152;2022-08-30T08:40:16;10.90;;;5.93;;
1949;SDS011;975;48.760;9.152;2022-08-30T08:42:51;6.35;;;4.88;;
1949;SDS011;975;48.760;9.152;2022-08-30T08:45:23;11.98;;;4.95;;
1949;SDS011;975;48.760;9.152;2022-08-30T08:47:56;8.15;;;5.35;;
1949;SDS011;975;48.760;9.152;2022-08-30T08:50:26;9.65;;;5.63;;
1949;SDS011;975;48.760;9.152;2022-08-30T08:52:55;10.70;;;5.57;;
1949;SDS011;975;48.760;9.152;2022-08-30T08:55:41;8.82;;;5.30;;
1949;SDS011;975;48.760;9.152;2022-08-30T08:58:20;8.82;;;5.32;;
1949;SDS011;975;48.760;9.152;2022-08-30T09:00:49;8.05;;;5.05;;
1949;SDS011;975;48.760;9.152;2022-08-30T09:03:16;8.18;;;5.07;;
1949;SDS011;975;48.760;9.152;2022-08-30T09:05:46;7.25;;;4.80;;
1949;SDS011;975;48.760;9.152;2022-08-30T09:10:42;11.02;;;5.43;;
1949;SDS011;975;48.760;9.152;2022-08-30T09:13:14;9.43;;;5.03;;
1949;SDS011;975;48.760;9.152;2022-08-30T09:15:41;8.70;;;5.65;;
1949;SDS011;975;48.760;9.152;2022-08-30T09:18:09;10.35;;;5.20;;
1949;SDS011;975;48.760;9.152;2022-08-30T09:20:37;7.45;;;4.93;;
1949;SDS011;975;48.760;9.152;2022-08-30T09:25:54;11.57;;;5.63;;
1949;SDS011;975;48.760;9.152;2022-08-30T09:28:24;11.27;;;5.50;;
1949;SDS011;975;48.760;9.152;2022-08-30T09:30:59;9.98;;;5.20;;
1949;SDS011;975;48.760;9.152;2022-08-30T09:33:28;9.80;;;4.78;;
1949;SDS011;975;48.760;9.152;2022-08-30T09:35:56;5.68;;;4.53;;
1949;SDS011;975;48.760;9.152;2022-08-30T09:38:25;7.60;;;4.32;;
1949;SDS011;975;48.760;9.152;2022-08-30T09:40:56;7.85;;;4.82;;
1949;SDS011;975;48.760;9.152;2022-08-30T09:43:26;7.55;;;4.57;;
1949;SDS011;975;48.760;9.152;2022-08-30T09:46:07;9.25;;;5.13;;
1949;SDS011;975;48.760;9.152;2022-08-30T09:48:35;7.18;;;4.22;;
1949;SDS011;975;48.760;9.152;2022-08-30T09:51:10;5.45;;;4.18;;
1949;SDS011;975;48.760;9.152;2022-08-30T09:53:41;6.30;;;4.55;;
1949;SDS011;975;48.760;9.152;2022-08-30T09:56:15;5.20;;;4.15;;
1949;SDS011;975;48.760;9.152;2022-08-30T09:58:54;4.75;;;3.90;;
1949;SDS011;975;48.760;9.152;2022-08-30T10:01:26;5.53;;;3.90;;
1949;SDS011;975;48.760;9.152;2022-08-30T10:03:56;6.85;;;3.67;;
1949;SDS011;975;48.760;9.152;2022-08-30T10:06:30;8.20;;;3.88;;
1949;SDS011;975;48.760;9.152;2022-08-30T10:09:05;5.35;;;4.10;;
1949;SDS011;975;48.760;9.152;2022-08-30T10:11:38;5.72;;;3.97;;
1949;SDS011;975;48.760;9.152;2022-08-30T10:14:22;6.13;;;4.30;;
1949;SDS011;975;48.760;9.152;2022-08-30T10:16:55;4.55;;;4.00;;
1949;SDS011;975;48.760;9.152;2022-08-30T10:19:28;5.10;;;3.35;;
1949;SDS011;975;48.760;9.152;2022-08-30T10:22:00;9.15;;;4.20;;
1949;SDS011;975;48.760;9.152;2022-08-30T10:24:29;5.15;;;3.80;;
1949;SDS011;975;48.760;9.152;2022-08-30T10:27:03;5.25;;;3.83;;
1949;SDS011;975;48.760;9.152;2022-08-30T10:29:33;5.05;;;3.72;;
1949;SDS011;975;48.760;9.152;2022-08-30T10:32:04;7.22;;;3.75;;
1949;SDS011;975;48.760;9.152;2022-08-30T10:34:34;6.95;;;4.30;;
1949;SDS011;975;48.760;9.152;2022-08-30T10:37:03;5.07;;;3.92;;
1949;SDS011;975;48.760;9.152;2022-08-30T10:39:33;5.60;;;3.67;;
1949;SDS011;975;48.760;9.152;2022-08-30T10:42:04;7.80;;;3.67;;
1949;SDS011;975;48.760;9.152;2022-08-30T10:44:34;6.15;;;3.85;;
1949;SDS011;975;48.760;9.152;2022-08-30T10:47:07;4.00;;;3.40;;
1949;SDS011;975;48.760;9.152;2022-08-30T10:49:39;4.60;;;3.35;;
1949;SDS011;975;48.760;9.152;2022-08-30T10:52:14;5.93;;;3.50;;
1949;SDS011;975;48.760;9.152;2022-08-30T10:54:46;5.15;;;3.67;;
1949;SDS011;975;48.760;9.152;2022-08-30T10:57:16;4.28;;;2.95;;
1949;SDS011;975;48.760;9.152;2022-08-30T10:59:45;6.00;;;3.53;;
1949;SDS011;975;48.760;9.152;2022-08-30T11:02:29;6.05;;;3.58;;
1949;SDS011;975;48.760;9.152;2022-08-30T11:05:06;6.45;;;4.00;;
1949;SDS011;975;48.760;9.152;2022-08-30T11:07:40;5.28;;;3.55;;
1949;SDS011;975;48.760;9.152;2022-08-30T11:10:17;4.95;;;3.30;;
1949;SDS011;975;48.760;9.152;2022-08-30T11:12:52;3.90;;;3.10;;
1949;SDS011;975;48.760;9.152;2022-08-30T11:15:22;5.53;;;3.30;;
1949;SDS011;975;48.760;9.152;2022-08-30T11:17:53;5.53;;;3.47;;
1949;SDS011;975;48.760;9.152;2022-08-30T11:20:27;5.30;;;3.83;;
1949;SDS011;975;48.760;9.152;2022-08-30T11:23:18;5.68;;;3.90;;
1949;SDS011;975;48.760;9.152;2022-08-30T11:25:47;5.90;;;3.38;;
1949;SDS011;975;48.760;9.152;2022-08-30T11:31:05;7.15;;;3.90;;
1949;SDS011;975;48.760;9.152;2022-08-30T11:33:39;5.63;;;3.58;;
1949;SDS011;975;48.760;9.152;2022-08-30T11:36:08;4.35;;;3.70;;
1949;SDS011;975;48.760;9.152;2022-08-30T11:41:28;4.85;;;3.47;;
1949;SDS011;975;48.760;9.152;2022-08-30T11:44:04;4.45;;;3.67;;
1949;SDS011;975;48.760;9.152;2022-08-30T11:46:39;4.85;;;3.92;;
1949;SDS011;975;48.760;9.152;2022-08-30T11:52:05;4.00;;;3.60;;
1949;SDS011;975;48.760;9.152;2022-08-30T11:54:36;6.72;;;3.97;;
1949;SDS011;975;48.760;9.152;2022-08-30T11:57:16;4.05;;;3.42;;
1949;SDS011;975;48.760;9.152;2022-08-30T11:59:52;6.60;;;3.85;;
1949;SDS011;975;48.760;9.152;2022-08-30T12:02:41;4.97;;;3.67;;
1949;SDS011;975;48.760;9.152;2022-08-30T12:14:34;5.43;;;4.07;;
1949;SDS011;975;48.760;9.152;2022-08-30T12:17:03;5.93;;;3.67;;
1949;SDS011;975;48.760;9.152;2022-08-30T12:19:55;7.78;;;3.53;;
1949;SDS011;975;48.760;9.152;2022-08-30T12:22:24;5.85;;;4.03;;
1949;SDS011;975;48.760;9.152;2022-08-30T12:24:54;4.95;;;3.33;;
1949;SDS011;975;48.760;9.152;2022-08-30T12:27:23;6.15;;;3.80;;
1949;SDS011;975;48.760;9.152;2022-08-30T12:32:20;6.65;;;3.63;;
1949;SDS011;975;48.760;9.152;2022-08-30T12:34:49;6.00;;;4.15;;
1949;SDS011;975;48.760;9.152;2022-08-30T12:37:20;5.53;;;3.83;;
1949;SDS011;975;48.760;9.152;2022-08-30T12:39:58;4.85;;;3.83;;
1949;SDS011;975;48.760;9.152;2022-08-30T12:42:29;6.28;;;4.20;;
1949;SDS011;975;48.760;9.152;2022-08-30T12:45:00;4.68;;;4.00;;
1949;SDS011;975;48.760;9.152;2022-08-30T12:47:35;4.80;;;3.53;;
1949;SDS011;975;48.760;9.152;2022-08-30T12:50:07;4.82;;;4.07;;
1949;SDS011;975;48.760;9.152;2022-08-30T12:52:38;5.35;;;3.95;;
1949;SDS011;975;48.760;9.152;2022-08-30T12:55:09;4.43;;;3.63;;
1949;SDS011;975;48.760;9.152;2022-08-30T12:57:40;4.97;;;4.03;;
1949;SDS011;975;48.760;9.152;2022-08-30T13:00:22;5.25;;;3.70;;
1949;SDS011;975;48.760;9.152;2022-08-30T13:02:51;4.85;;;3.40;;
1949;SDS011;975;48.760;9.152;2022-08-30T13:05:26;6.18;;;3.95;;
1949;SDS011;975;48.760;9.152;2022-08-30T13:08:07;5.95;;;3.67;;
1949;SDS011;975;48.760;9.152;2022-08-30T13:10:50;5.43;;;3.65;;
1949;SDS011;975;48.760;9.152;2022-08-30T13:13:26;4.63;;;3.13;;
1949;SDS011;975;48.760;9.152;2022-08-30T13:15:56;5.88;;;3.38;;
1949;SDS011;975;48.760;9.152;2022-08-30T13:18:32;4.18;;;3.60;;
1949;SDS011;975;48.760;9.152;2022-08-30T13:21:09;6.25;;;3.90;;
1949;SDS011;975;48.760;9.152;2022-08-30T13:23:49;4.70;;;3.90;;
1949;SDS011;975;48.760;9.152;2022-08-30T13:26:20;5.60;;;3.60;;
1949;SDS011;975;48.760;9.152;2022-08-30T13:28:49;5.65;;;3.70;;
1949;SDS011;975;48.760;9.152;2022-08-30T13:31:17;6.38;;;3.90;;
1949;SDS011;975;48.760;9.152;2022-08-30T13:33:45;5.30;;;3.67;;
1949;SDS011;975;48.760;9.152;2022-08-30T13:36:17;6.72;;;4.20;;
1949;SDS011;975;48.760;9.152;2022-08-30T13:38:46;4.88;;;3.90;;
1949;SDS011;975;48.760;9.152;2022-08-30T13:41:15;9.75;;;3.70;;
1949;SDS011;975;48.760;9.152;2022-08-30T13:43:42;5.45;;;3.53;;
1949;SDS011;975;48.760;9.152;2022-08-30T13:46:09;4.28;;;3.33;;
1949;SDS011;975;48.760;9.152;2022-08-30T13:48:38;5.05;;;3.55;;
1949;SDS011;975;48.760;9.152;2022-08-30T13:51:05;5.72;;;3.50;;
1949;SDS011;975;48.760;9.152;2022-08-30T13:53:33;5.53;;;3.88;;
1949;SDS011;975;48.760;9.152;2022-08-30T13:56:02;5.38;;;3.78;;
1949;SDS011;975;48.760;9.152;2022-08-30T13:58:31;4.85;;;3.80;;
1949;SDS011;975;48.760;9.152;2022-08-30T14:00:59;4.88;;;4.18;;
1949;SDS011;975;48.760;9.152;2022-08-30T14:03:26;11.55;;;4.65;;
1949;SDS011;975;48.760;9.152;2022-08-30T14:05:53;6.10;;;3.63;;
1949;SDS011;975;48.760;9.152;2022-08-30T14:08:24;5.28;;;3.45;;
1949;SDS011;975;48.760;9.152;2022-08-30T14:10:53;5.60;;;3.60;;
1949;SDS011;975;48.760;9.152;2022-08-30T14:13:20;5.10;;;4.07;;
1949;SDS011;975;48.760;9.152;2022-08-30T14:15:50;4.65;;;3.90;;
1949;SDS011;975;48.760;9.152;2022-08-30T14:18:17;5.30;;;3.42;;
1949;SDS011;975;48.760;9.152;2022-08-30T14:20:45;6.03;;;4.25;;
1949;SDS011;975;48.760;9.152;2022-08-30T14:23:12;4.07;;;3.60;;
1949;SDS011;975;48.760;9.152;2022-08-30T14:25:39;5.15;;;3.88;;
1949;SDS011;975;48.760;9.152;2022-08-30T14:28:09;5.82;;;3.65;;
1949;SDS011;975;48.760;9.152;2022-08-30T14:30:37;4.85;;;3.63;;
1949;SDS011;975;48.760;9.152;2022-08-30T14:33:06;4.80;;;3.65;;
1949;SDS011;975;48.760;9.152;2022-08-30T14:35:36;5.55;;;3.97;;
1949;SDS011;975;48.760;9.152;2022-08-30T14:38:03;6.47;;;4.05;;
1949;SDS011;975;48.760;9.152;2022-08-30T14:40:31;5.03;;;3.53;;
1949;SDS011;975;48.760;9.152;2022-08-30T14:42:58;5.60;;;3.97;;
1949;SDS011;975;48.760;9.152;2022-08-30T14:45:25;4.68;;;3.83;;
1949;SDS011;975;48.760;9.152;2022-08-30T14:47:53;3.47;;;3.17;;
1949;SDS011;975;48.760;9.152;2022-08-30T14:50:23;4.68;;;3.75;;
1949;SDS011;975;48.760;9.152;2022-08-30T14:52:50;5.22;;;3.55;;
1949;SDS011;975;48.760;9.152;2022-08-30T14:55:17;4.43;;;3.47;;
1949;SDS011;975;48.760;9.152;2022-08-30T14:57:45;5.40;;;3.80;;
1949;SDS011;975;48.760;9.152;2022-08-30T15:00:13;5.50;;;3.60;;
1949;SDS011;975;48.760;9.152;2022-08-30T15:02:41;7.13;;;3.78;;
1949;SDS011;975;48.760;9.152;2022-08-30T15:05:08;4.82;;;3.75;;
1949;SDS011;975;48.760;9.152;2022-08-30T15:07:37;5.93;;;3.95;;
1949;SDS011;975;48.760;9.152;2022-08-30T15:10:04;6.57;;;4.00;;
1949;SDS011;975;48.760;9.152;2022-08-30T15:12:32;8.50;;;4.65;;
1949;SDS011;975;48.760;9.152;2022-08-30T15:15:00;4.82;;;4.10;;
1949;SDS011;975;48.760;9.152;2022-08-30T15:17:27;4.50;;;4.07;;
1949;SDS011;975;48.760;9.152;2022-08-30T15:19:55;6.63;;;3.97;;
1949;SDS011;975;48.760;9.152;2022-08-30T15:22:22;5.28;;;4.10;;
1949;SDS011;975;48.760;9.152;2022-08-30T15:24:50;5.72;;;4.25;;
1949;SDS011;975;48.760;9.152;2022-08-30T15:27:19;6.82;;;3.85;;
1949;SDS011;975;48.760;9.152;2022-08-30T15:29:48;7.85;;;5.55;;
1949;SDS011;975;48.760;9.152;2022-08-30T15:32:15;7.10;;;4.60;;
1949;SDS011;975;48.760;9.152;2022-08-30T15:34:42;7.00;;;4.75;;
1949;SDS011;975;48.760;9.152;2022-08-30T15:37:10;5.90;;;4.70;;
1949;SDS011;975;48.760;9.152;2022-08-30T15:39:37;8.02;;;6.57;;
1949;SDS011;975;48.760;9.152;2022-08-30T15:42:06;7.05;;;5.22;;
1949;SDS011;975;48.760;9.152;2022-08-30T15:44:33;5.82;;;4.20;;
1949;SDS011;975;48.760;9.152;2022-08-30T15:47:00;4.70;;;3.67;;
1949;SDS011;975;48.760;9.152;2022-08-30T15:49:28;5.60;;;4.10;;
1949;SDS011;975;48.760;9.152;2022-08-30T15:51:55;6.72;;;4.28;;
1949;SDS011;975;48.760;9.152;2022-08-30T15:54:25;5.55;;;3.63;;
1949;SDS011;975;48.760;9.152;2022-08-30T15:56:53;8.77;;;4.10;;
1949;SDS011;975;48.760;9.152;2022-08-30T15:59:25;4.50;;;3.53;;
1949;SDS011;975;48.760;9.152;2022-08-30T16:01:52;5.05;;;3.70;;
1949;SDS011;975;48.760;9.152;2022-08-30T16:04:20;4.93;;;3.50;;
1949;SDS011;975;48.760;9.152;2022-08-30T16:06:47;3.95;;;3.40;;
1949;SDS011;975;48.760;9.152;2022-08-30T16:09:15;6.25;;;3.67;;
1949;SDS011;975;48.760;9.152;2022-08-30T16:11:43;5.60;;;4.07;;
1949;SDS011;975;48.760;9.152;2022-08-30T16:14:10;7.45;;;3.72;;